createdAt,value
2019-06-18T13:02:13.256Z,36.17
2019-06-18T13:04:44.068Z,34.33
2019-06-18T13:07:14.896Z,33.58
2019-06-18T13:09:45.647Z,35.33
2019-06-18T13:12:16.424Z,35.07
2019-06-18T13:14:47.190Z,36.64
2019-06-18T13:17:17.989Z,33.43
2019-06-18T13:19:48.751Z,35.55
2019-06-18T13:22:19.527Z,34.69
2019-06-18T13:24:56.610Z,35.79
2019-06-18T13:27:25.699Z,34.29
2019-06-18T13:29:56.468Z,35.67
2019-06-18T13:32:27.233Z,34.62
2019-06-18T13:34:58.012Z,35.80
2019-06-18T13:37:28.804Z,34.66
2019-06-18T13:39:59.569Z,33.43
2019-06-18T13:42:33.108Z,33.94
2019-06-18T13:45:05.341Z,34.35
2019-06-18T13:47:36.107Z,33.12
2019-06-18T13:50:07.370Z,31.36
2019-06-18T13:52:38.223Z,32.27
2019-06-18T13:55:09.098Z,31.91
2019-06-18T13:57:42.775Z,30.04
2019-06-18T14:00:14.091Z,29.03
2019-06-18T14:02:45.067Z,26.94
2019-06-18T14:05:16.034Z,28.00
2019-06-18T14:07:46.796Z,27.93
2019-06-18T14:10:17.664Z,29.45
2019-06-18T14:12:48.455Z,28.74
2019-06-18T14:15:19.416Z,29.83
2019-06-18T14:17:53.227Z,29.82
2019-06-18T14:20:23.526Z,30.62
2019-06-18T14:22:54.308Z,30.71
2019-06-18T14:25:25.089Z,29.93
2019-06-18T14:27:55.878Z,28.40
2019-06-18T14:30:26.640Z,30.05
2019-06-18T14:32:57.411Z,29.04
2019-06-18T14:35:31.578Z,28.60
2019-06-18T14:38:00.899Z,30.37
2019-06-18T14:40:33.735Z,27.67
2019-06-18T14:43:04.366Z,24.70
2019-06-18T14:45:38.516Z,24.56
2019-06-18T14:48:08.891Z,22.46
2019-06-18T14:50:39.657Z,21.66
2019-06-18T14:53:10.428Z,20.05
2019-06-18T14:55:42.995Z,19.23
2019-06-18T14:58:13.869Z,19.46
2019-06-18T15:00:44.632Z,21.34
2019-06-18T15:03:15.409Z,21.19
2019-06-18T15:05:46.161Z,20.62
2019-06-18T15:08:17.032Z,20.39
2019-06-18T15:10:47.788Z,20.60
2019-06-18T15:13:18.584Z,19.40
2019-06-18T15:15:49.331Z,18.51
2019-06-18T15:18:20.115Z,19.90
2019-06-18T15:20:52.719Z,19.82
2019-06-18T15:23:23.552Z,21.93
2019-06-18T15:26:03.590Z,22.00
2019-06-18T15:28:27.022Z,22.14
2019-06-18T15:30:57.793Z,23.54
2019-06-18T15:33:28.550Z,24.23
2019-06-18T15:35:59.329Z,26.98
2019-06-18T15:38:32.557Z,27.18
2019-06-18T15:41:03.123Z,29.48
2019-06-18T15:43:34.056Z,29.16
2019-06-18T15:46:04.816Z,27.68
2019-06-18T15:48:35.588Z,27.25
2019-06-18T15:51:06.360Z,27.40
2019-06-18T15:53:37.137Z,25.50
2019-06-18T15:56:07.904Z,22.27
2019-06-18T15:58:38.663Z,25.67
2019-06-18T16:01:16.655Z,26.35
2019-06-18T16:03:43.251Z,27.00
2019-06-18T16:06:14.431Z,29.86
2019-06-18T16:08:45.228Z,30.20
2019-06-18T16:11:16.012Z,30.34
2019-06-18T16:13:46.800Z,30.27
2019-06-18T16:16:17.581Z,29.63
2019-06-18T16:18:48.346Z,30.03
2019-06-18T16:21:19.125Z,28.87
2019-06-18T16:23:52.081Z,28.75
2019-06-18T16:26:23.100Z,28.87
2019-06-18T16:28:53.911Z,29.18
2019-06-18T16:31:24.702Z,29.69
2019-06-18T16:33:55.503Z,28.83
2019-06-18T16:36:26.279Z,31.08
2019-06-18T16:38:57.030Z,31.66
2019-06-18T16:41:27.923Z,31.47
2019-06-18T16:43:58.734Z,30.49
2019-06-18T16:46:29.645Z,30.41
2019-06-18T16:49:03.303Z,30.76
2019-06-18T16:51:33.296Z,31.04
2019-06-18T16:54:04.068Z,30.43
2019-06-18T16:56:34.853Z,29.88
2019-06-18T16:59:05.621Z,28.98
2019-06-18T17:01:36.403Z,30.02
2019-06-18T17:04:07.201Z,34.28
2019-06-18T17:06:37.970Z,30.81
2019-06-18T17:09:09.475Z,28.78
2019-06-18T17:11:42.823Z,29.31
2019-06-18T17:14:12.996Z,30.96
2019-06-18T17:16:43.867Z,32.40
2019-06-18T17:19:14.631Z,30.16
2019-06-18T17:21:45.446Z,30.09
2019-06-18T17:24:16.235Z,30.36
2019-06-18T17:26:48.429Z,31.06
2019-06-18T17:29:19.464Z,30.22
2019-06-18T17:31:50.231Z,32.01
2019-06-18T17:34:23.297Z,30.79
2019-06-18T17:36:53.786Z,29.40
2019-06-18T17:39:24.539Z,30.85
2019-06-18T17:41:55.340Z,29.69
2019-06-18T17:44:26.109Z,32.21
2019-06-18T17:46:56.931Z,31.77
2019-06-18T17:49:27.736Z,33.67
2019-06-18T17:51:58.516Z,33.38
2019-06-18T17:54:29.326Z,34.09
2019-06-18T17:57:02.624Z,30.31
2019-06-18T17:59:33.088Z,30.37
2019-06-18T18:02:03.956Z,32.88
2019-06-18T18:04:36.667Z,33.37
2019-06-18T18:07:07.408Z,31.94
2019-06-18T18:09:38.176Z,31.35
2019-06-18T18:12:08.958Z,32.89
2019-06-18T18:14:39.746Z,34.17
2019-06-18T18:17:19.395Z,35.51
2019-06-18T18:19:43.185Z,34.98
2019-06-18T18:22:13.966Z,36.92
2019-06-18T18:24:44.717Z,39.28
2019-06-18T18:27:15.483Z,36.83
2019-06-18T18:29:46.274Z,38.90
2019-06-18T18:32:17.035Z,41.35
2019-06-18T18:34:47.809Z,40.76
2019-06-18T18:37:19.639Z,43.11
2019-06-18T18:39:52.226Z,43.58
2019-06-18T18:42:23.391Z,44.66
2019-06-18T18:44:54.288Z,44.70
2019-06-18T18:47:25.195Z,44.54
2019-06-18T18:49:55.930Z,44.68
2019-06-18T18:52:26.724Z,45.72
2019-06-18T18:54:57.499Z,46.52
2019-06-18T18:57:28.317Z,45.95
2019-06-18T19:00:03.986Z,46.37
2019-06-18T19:02:33.665Z,47.00
2019-06-18T19:05:05.324Z,47.25
2019-06-18T19:07:36.109Z,47.25
2019-06-18T19:10:08.252Z,48.46
2019-06-18T19:12:39.023Z,48.28
2019-06-18T19:15:12.483Z,48.82
2019-06-18T19:17:44.015Z,49.53
2019-06-18T19:20:14.785Z,49.64
2019-06-18T19:22:45.596Z,50.39
2019-06-18T19:25:16.451Z,49.94
2019-06-18T19:27:47.214Z,49.07
2019-06-18T19:30:18.007Z,49.93
2019-06-18T19:32:49.785Z,50.73
2019-06-18T19:35:20.555Z,50.80
2019-06-18T19:37:52.934Z,50.82
2019-06-18T19:40:23.891Z,51.73
2019-06-18T19:42:54.671Z,51.83
2019-06-18T19:45:25.436Z,52.12
2019-06-18T19:47:56.221Z,52.89
2019-06-18T19:50:26.980Z,52.53
2019-06-18T19:52:57.768Z,53.21
2019-06-18T19:55:28.568Z,53.36
2019-06-18T19:57:59.349Z,53.77
2019-06-18T20:00:32.377Z,54.62
2019-06-18T20:03:03.222Z,54.63
2019-06-18T20:05:34.055Z,54.92
2019-06-18T20:08:04.844Z,55.06
2019-06-18T20:10:35.615Z,55.21
2019-06-18T20:13:06.780Z,55.35
2019-06-18T20:15:37.662Z,55.20
2019-06-18T20:18:39.437Z,55.30
2019-06-18T20:21:12.670Z,54.77
2019-06-18T20:23:43.470Z,54.60
2019-06-18T20:26:14.550Z,54.33
2019-06-18T20:28:45.324Z,54.43
2019-06-18T20:31:16.114Z,50.87
2019-06-18T20:33:46.884Z,51.51
2019-06-18T20:36:17.668Z,50.99
2019-06-18T20:38:48.463Z,51.43
2019-06-18T20:41:19.292Z,53.43
2019-06-18T20:43:50.138Z,53.58
2019-06-18T20:46:23.111Z,54.62
2019-06-18T20:48:54.010Z,54.46
2019-06-18T20:51:24.799Z,55.24
2019-06-18T20:53:55.574Z,55.24
2019-06-18T20:56:26.337Z,54.96
2019-06-18T20:58:57.106Z,56.52
2019-06-18T21:01:27.867Z,57.33
2019-06-18T21:03:59.080Z,56.82
2019-06-18T21:06:32.161Z,57.43
2019-06-18T21:09:04.786Z,57.17
2019-06-18T21:11:35.745Z,57.66
2019-06-18T21:14:07.116Z,56.44
2019-06-18T21:16:37.878Z,55.71
2019-06-18T21:19:08.658Z,54.33
2019-06-18T21:21:39.422Z,53.79
2019-06-18T21:24:12.445Z,53.82
2019-06-18T21:26:42.925Z,54.55
2019-06-18T21:29:13.691Z,55.86
2019-06-18T21:31:44.472Z,54.77
2019-06-18T21:34:15.267Z,54.64
2019-06-18T21:36:46.041Z,55.52
2019-06-18T21:39:16.818Z,55.55
2019-06-18T21:41:47.609Z,54.33
2019-06-18T21:44:18.389Z,54.85
2019-06-18T21:46:49.175Z,56.07
2019-06-18T21:49:19.961Z,55.37
2019-06-18T21:51:50.728Z,56.47
2019-06-18T21:54:23.082Z,57.27
2019-06-18T21:56:54.289Z,56.50
2019-06-18T21:59:25.076Z,56.53
2019-06-18T22:01:55.954Z,56.87
2019-06-18T22:04:26.762Z,56.28
2019-06-18T22:06:57.533Z,56.64
2019-06-18T22:09:28.323Z,56.64
2019-06-18T22:11:59.083Z,57.12
2019-06-18T22:14:32.240Z,58.78
2019-06-18T22:17:02.804Z,59.21
2019-06-18T22:19:33.783Z,58.85
2019-06-18T22:22:04.550Z,58.03
2019-06-18T22:24:35.316Z,57.30
2019-06-18T22:27:06.076Z,58.39
2019-06-18T22:29:36.879Z,58.05
2019-06-18T22:32:07.638Z,58.54
2019-06-18T22:34:38.455Z,57.75
2019-06-18T22:37:09.222Z,58.59
2019-06-18T22:39:42.394Z,59.99
2019-06-18T22:42:12.723Z,59.84
2019-06-18T22:44:43.848Z,60.45
2019-06-18T22:47:14.666Z,59.68
2019-06-18T22:49:45.432Z,58.92
2019-06-18T22:52:17.319Z,58.76
2019-06-18T22:54:48.075Z,58.66
2019-06-18T22:57:18.867Z,58.58
2019-06-18T22:59:49.622Z,59.73
2019-06-18T23:02:20.417Z,60.38
2019-06-18T23:04:53.052Z,59.31
2019-06-18T23:07:23.867Z,58.98
2019-06-18T23:09:54.679Z,58.81
2019-06-18T23:12:25.441Z,60.64
2019-06-18T23:14:56.289Z,60.31
2019-06-18T23:17:27.318Z,62.67
2019-06-18T23:19:58.075Z,62.67
2019-06-18T23:22:28.865Z,61.84
2019-06-18T23:25:02.170Z,62.43
2019-06-18T23:27:32.691Z,61.64
2019-06-18T23:30:05.371Z,61.94
2019-06-18T23:32:36.142Z,61.95
2019-06-18T23:35:09.845Z,62.63
2019-06-18T23:37:39.687Z,63.59
2019-06-18T23:40:12.528Z,62.98
2019-06-18T23:42:44.051Z,63.04
2019-06-18T23:45:15.083Z,63.15
2019-06-18T23:47:45.860Z,62.66
2019-06-18T23:50:16.634Z,62.83
2019-06-18T23:52:47.435Z,63.21
2019-06-18T23:55:18.227Z,63.12
2019-06-18T23:57:49.004Z,63.94
